Terminal Aerodrome Forecast
Issued by NWS

Home | Current Version | Previous Version | Text Only | Print | Product List | Glossary On
Versions: 1 2 3 4 5 6 7 8 9 10 11 12 13 14 15 16 17 18 19 20 21 22 23 24
000
FTUS46 KSEW 251125
TAFHQM
TAF
KHQM 251125Z 2512/2612 19006KT P6SM -RA SCT010 OVC020
      TEMPO 2512/2516 4SM RA BR BKN008 OVC015
     FM251600 18007KT 4SM RA BR OVC007
     FM252100 22007KT 4SM -SHRA BR BKN012 OVC020
     FM260200 23008KT 6SM BR VCSH BKN015 BKN025
     FM260900 33005KT P6SM BKN017 BKN040=

USA.gov is the U.S. government's official web portal to all federal, state and local government web resources and services.